createdAt,value
2022-11-13T00:01:11.718Z,19.95
2022-11-13T00:04:04.619Z,22.05
2022-11-13T00:06:58.881Z,19.15
2022-11-13T00:09:48.831Z,17.58
2022-11-13T00:12:38.227Z,16.55
2022-11-13T00:15:29.048Z,16.20
2022-11-13T00:18:19.085Z,17.08
2022-11-13T00:21:14.428Z,20.90
2022-11-13T00:24:04.136Z,17.02
2022-11-13T00:26:53.529Z,17.98
2022-11-13T00:29:43.888Z,17.55
2022-11-13T00:32:33.413Z,15.93
2022-11-13T00:35:23.247Z,14.60
2022-11-13T00:38:15.182Z,18.70
2022-11-13T00:41:04.769Z,15.85
2022-11-13T00:43:54.438Z,15.55
2022-11-13T00:46:44.013Z,15.18
2022-11-13T00:49:33.969Z,15.98
2022-11-13T00:52:23.442Z,18.48
2022-11-13T00:55:16.027Z,14.15
2022-11-13T00:58:05.465Z,15.77
2022-11-13T01:00:55.347Z,16.50
2022-11-13T01:03:44.590Z,17.70
2022-11-13T01:06:34.068Z,16.27
2022-11-13T01:09:23.391Z,16.70
2022-11-13T01:12:16.064Z,16.85
2022-11-13T01:15:05.491Z,15.70
2022-11-13T01:17:55.361Z,15.57
2022-11-13T01:20:45.089Z,17.25
2022-11-13T01:23:35.015Z,17.75
2022-11-13T01:26:27.067Z,14.13
2022-11-13T01:29:19.596Z,15.65
2022-11-13T01:32:09.386Z,15.68
2022-11-13T01:34:58.642Z,18.60
2022-11-13T01:37:48.497Z,14.98
2022-11-13T01:40:38.222Z,17.02
2022-11-13T01:43:30.812Z,16.95
2022-11-13T01:46:26.146Z,18.40
2022-11-13T01:49:26.359Z,13.85
2022-11-13T01:52:18.694Z,15.25
2022-11-13T01:55:12.034Z,16.35
2022-11-13T01:58:02.885Z,16.70
2022-11-13T02:00:52.843Z,14.82
2022-11-13T02:03:45.286Z,13.38
2022-11-13T02:06:40.248Z,15.32
2022-11-13T02:09:32.234Z,12.90
2022-11-13T02:12:28.420Z,13.18
2022-11-13T02:15:17.859Z,12.85
2022-11-13T02:18:07.806Z,15.45
2022-11-13T02:21:07.563Z,14.38
2022-11-13T02:24:07.077Z,14.05
2022-11-13T02:27:03.842Z,14.70
2022-11-13T02:29:53.219Z,13.50
2022-11-13T02:32:47.348Z,13.52
2022-11-13T02:35:40.525Z,15.38
2022-11-13T02:38:30.441Z,14.90
2022-11-13T02:41:20.044Z,14.30
2022-11-13T02:44:12.510Z,14.45
2022-11-13T02:47:02.053Z,13.45
2022-11-13T02:49:51.271Z,16.75
2022-11-13T02:52:40.929Z,13.95
2022-11-13T02:55:30.401Z,15.23
2022-11-13T02:58:19.846Z,12.38
2022-11-13T03:01:12.401Z,13.55
2022-11-13T03:04:01.889Z,14.63
2022-11-13T03:06:51.806Z,15.00
2022-11-13T03:09:41.322Z,13.77
2022-11-13T03:12:30.871Z,14.88
2022-11-13T03:15:20.519Z,15.55
2022-11-13T03:18:12.942Z,17.63
2022-11-13T03:21:08.594Z,14.77
2022-11-13T03:23:58.810Z,14.98
2022-11-13T03:26:48.299Z,16.15
2022-11-13T03:29:37.842Z,13.63
2022-11-13T03:32:27.845Z,16.60
2022-11-13T03:35:20.040Z,14.60
2022-11-13T03:38:09.363Z,15.88
2022-11-13T03:40:59.751Z,14.18
2022-11-13T03:43:49.071Z,19.02
2022-11-13T03:46:38.633Z,13.63
2022-11-13T03:49:28.680Z,13.15
2022-11-13T03:52:20.902Z,13.82
2022-11-13T03:55:11.304Z,13.85
2022-11-13T03:58:02.908Z,18.63
2022-11-13T04:00:53.045Z,14.50
2022-11-13T04:03:42.590Z,11.55
2022-11-13T04:06:32.396Z,14.80
2022-11-13T04:09:24.331Z,14.68
2022-11-13T04:12:13.839Z,12.73
2022-11-13T04:15:02.976Z,13.63
2022-11-13T04:17:52.957Z,15.32
2022-11-13T04:20:42.599Z,15.20
2022-11-13T04:23:32.275Z,12.93
2022-11-13T04:26:24.355Z,11.07
2022-11-13T04:29:13.651Z,14.02
2022-11-13T04:32:03.255Z,12.25
2022-11-13T04:34:52.519Z,12.18
2022-11-13T04:37:42.106Z,12.70
2022-11-13T04:40:31.519Z,12.63
2022-11-13T04:43:20.810Z,13.63
2022-11-13T04:46:09.983Z,12.10
2022-11-13T04:48:59.771Z,10.65
2022-11-13T04:51:49.134Z,11.88
2022-11-13T04:54:38.574Z,13.20
2022-11-13T04:57:27.979Z,13.02
2022-11-13T05:00:22.909Z,11.27
2022-11-13T05:03:12.789Z,11.82
2022-11-13T05:06:06.785Z,14.55
2022-11-13T05:08:56.517Z,13.20
2022-11-13T05:11:45.903Z,12.30
2022-11-13T05:14:35.366Z,11.77
2022-11-13T05:17:27.123Z,14.48
2022-11-13T05:20:16.143Z,12.23
2022-11-13T05:23:05.905Z,11.05
2022-11-13T05:25:55.788Z,10.43
2022-11-13T05:28:45.249Z,12.85
2022-11-13T05:31:34.583Z,11.55
2022-11-13T05:34:26.813Z,11.80
2022-11-13T05:37:16.460Z,11.57
2022-11-13T05:40:06.146Z,11.27
2022-11-13T05:42:57.049Z,11.23
2022-11-13T05:45:46.209Z,12.20
2022-11-13T05:48:36.810Z,12.07
2022-11-13T05:51:30.298Z,12.07
2022-11-13T05:54:19.651Z,12.75
2022-11-13T05:57:09.135Z,12.57
2022-11-13T05:59:58.721Z,14.50
2022-11-13T06:02:47.992Z,12.80
2022-11-13T06:05:38.572Z,12.15
2022-11-13T06:08:31.395Z,13.80
2022-11-13T06:11:23.087Z,11.25
2022-11-13T06:14:12.778Z,12.85
2022-11-13T06:17:02.029Z,11.13
2022-11-13T06:19:51.496Z,13.38
2022-11-13T06:22:41.085Z,11.35
2022-11-13T06:25:33.569Z,13.55
2022-11-13T06:28:23.553Z,13.23
2022-11-13T06:31:15.406Z,11.70
2022-11-13T06:34:04.988Z,12.65
2022-11-13T06:36:54.831Z,12.95
2022-11-13T06:39:44.050Z,12.60
2022-11-13T06:42:35.771Z,11.95
2022-11-13T06:45:25.017Z,14.20
2022-11-13T06:48:14.677Z,14.73
2022-11-13T06:51:05.374Z,13.23
2022-11-13T06:53:55.387Z,15.52
2022-11-13T06:56:45.764Z,14.27
2022-11-13T06:59:38.348Z,16.17
2022-11-13T07:02:28.434Z,14.50
2022-11-13T07:05:18.381Z,18.13
2022-11-13T07:08:07.979Z,14.82
2022-11-13T07:10:58.711Z,14.77
2022-11-13T07:13:48.477Z,15.43
2022-11-13T07:17:07.309Z,13.23
2022-11-13T07:19:50.419Z,15.07
2022-11-13T07:22:39.662Z,17.25
2022-11-13T07:25:30.290Z,16.00
2022-11-13T07:28:19.608Z,16.27
2022-11-13T07:31:10.111Z,14.90
2022-11-13T07:34:03.027Z,14.27
2022-11-13T07:36:52.884Z,15.48
2022-11-13T07:39:42.629Z,15.40
2022-11-13T07:42:31.829Z,14.88
2022-11-13T07:45:21.819Z,12.93
2022-11-13T07:48:11.408Z,15.10
2022-11-13T07:51:06.453Z,13.65
2022-11-13T07:53:56.416Z,14.13
2022-11-13T07:56:47.628Z,15.60
2022-11-13T07:59:37.028Z,13.40
2022-11-13T08:02:27.057Z,14.63
2022-11-13T08:05:17.291Z,13.45
2022-11-13T08:08:09.788Z,12.98
2022-11-13T08:10:59.130Z,17.58
2022-11-13T08:13:48.896Z,18.00
2022-11-13T08:16:38.796Z,16.67
2022-11-13T08:19:28.053Z,16.45
2022-11-13T08:22:17.775Z,17.13
2022-11-13T08:25:10.364Z,14.70
2022-11-13T08:28:00.229Z,12.88
2022-11-13T08:30:50.171Z,13.15
2022-11-13T08:33:39.974Z,12.75
2022-11-13T08:36:29.664Z,14.55
2022-11-13T08:39:19.101Z,11.95
2022-11-13T08:42:11.614Z,13.00
2022-11-13T08:45:01.134Z,12.68
2022-11-13T08:47:50.612Z,12.88
2022-11-13T08:50:40.124Z,14.40
2022-11-13T08:53:32.613Z,13.27
2022-11-13T08:56:22.484Z,13.80
2022-11-13T08:59:15.407Z,15.63
2022-11-13T09:02:04.951Z,13.77
2022-11-13T09:04:54.762Z,14.15
2022-11-13T09:07:44.336Z,14.00
2022-11-13T09:10:33.708Z,13.18
2022-11-13T09:13:23.174Z,15.63
2022-11-13T09:16:15.823Z,15.10
2022-11-13T09:19:05.607Z,14.23
2022-11-13T09:21:55.832Z,15.23
2022-11-13T09:24:45.281Z,15.65
2022-11-13T09:27:34.443Z,16.65
2022-11-13T09:30:24.447Z,16.08
2022-11-13T09:33:17.522Z,15.60
2022-11-13T09:36:13.238Z,14.93
2022-11-13T09:39:03.018Z,14.45
2022-11-13T09:41:58.612Z,16.60
2022-11-13T09:44:52.169Z,14.45
2022-11-13T09:47:46.407Z,15.88
2022-11-13T09:50:39.186Z,14.80
2022-11-13T09:53:28.941Z,15.73
2022-11-13T09:56:34.352Z,17.00
2022-11-13T09:59:30.739Z,15.65
2022-11-13T10:02:27.430Z,15.35
2022-11-13T10:05:25.759Z,16.65
2022-11-13T10:08:21.838Z,18.10
2022-11-13T10:11:19.460Z,15.02
2022-11-13T10:14:17.878Z,15.68
2022-11-13T10:20:02.620Z,15.18
2022-11-13T10:22:54.932Z,16.25
2022-11-13T10:25:48.379Z,15.07
2022-11-13T10:28:50.558Z,15.75
2022-11-13T10:31:48.709Z,13.07
2022-11-13T10:34:38.955Z,13.75
2022-11-13T10:37:43.804Z,15.82
2022-11-13T10:40:35.675Z,13.68
2022-11-13T10:43:29.605Z,14.52
2022-11-13T10:46:24.741Z,12.82
2022-11-13T10:49:17.234Z,13.40
2022-11-13T10:52:11.399Z,15.50
2022-11-13T10:55:19.670Z,12.90
2022-11-13T10:58:17.403Z,13.35
2022-11-13T11:01:18.691Z,14.88
2022-11-13T11:04:09.842Z,13.52
2022-11-13T11:07:20.190Z,15.18
2022-11-13T11:10:25.999Z,13.93
2022-11-13T11:13:24.552Z,12.60
2022-11-13T11:16:23.029Z,13.75
2022-11-13T11:19:15.975Z,16.90
2022-11-13T11:22:10.998Z,15.77
2022-11-13T11:25:05.475Z,16.42
2022-11-13T11:28:00.267Z,15.25
2022-11-13T11:30:53.866Z,17.15
2022-11-13T11:33:54.275Z,15.50
2022-11-13T11:36:51.361Z,14.02
2022-11-13T11:39:46.948Z,13.32
2022-11-13T11:42:42.889Z,13.45
2022-11-13T11:45:35.819Z,11.50
2022-11-13T11:48:30.113Z,13.40
2022-11-13T11:51:29.736Z,15.02
2022-11-13T11:54:30.444Z,16.65
2022-11-13T11:57:37.103Z,13.45
2022-11-13T12:00:28.541Z,13.90
2022-11-13T12:03:48.028Z,16.02
2022-11-13T12:07:00.908Z,13.38
2022-11-13T12:09:59.963Z,16.08
2022-11-13T12:13:03.829Z,15.05
2022-11-13T12:16:04.681Z,15.27
2022-11-13T12:19:02.409Z,13.88
2022-11-13T12:22:04.849Z,14.23
2022-11-13T12:25:17.545Z,14.05
2022-11-13T12:28:15.887Z,13.73
2022-11-13T12:31:17.440Z,16.33
2022-11-13T12:34:16.614Z,14.45
2022-11-13T12:37:15.519Z,15.57
2022-11-13T12:40:10.679Z,12.45
2022-11-13T12:43:15.888Z,13.48
2022-11-13T12:46:12.102Z,12.60
2022-11-13T12:49:03.096Z,12.65
2022-11-13T12:51:58.803Z,11.02
2022-11-13T12:54:52.737Z,13.70
2022-11-13T12:57:51.068Z,12.50
2022-11-13T13:00:44.633Z,11.55
2022-11-13T13:04:03.482Z,10.38
2022-11-13T13:07:04.158Z,12.00
2022-11-13T13:10:08.156Z,10.60
2022-11-13T13:13:21.001Z,12.88
2022-11-13T13:16:15.753Z,11.82
2022-11-13T13:19:27.117Z,11.63
2022-11-13T13:22:29.224Z,12.88
2022-11-13T13:25:32.533Z,13.95
2022-11-13T13:28:26.910Z,10.98
2022-11-13T13:31:37.792Z,16.00
2022-11-13T13:34:39.751Z,10.52
2022-11-13T13:37:43.738Z,11.63
2022-11-13T13:40:41.963Z,11.43
2022-11-13T13:43:44.223Z,14.57
2022-11-13T13:46:35.153Z,14.73
2022-11-13T13:49:29.009Z,11.23
2022-11-13T13:52:19.675Z,14.38
2022-11-13T13:55:12.051Z,13.05
2022-11-13T13:58:06.178Z,10.00
2022-11-13T14:01:19.310Z,12.43
2022-11-13T14:04:16.627Z,13.15
2022-11-13T14:07:06.596Z,10.07
2022-11-13T14:10:10.380Z,10.48
2022-11-13T14:13:00.551Z,11.10
2022-11-13T14:15:52.619Z,12.13
2022-11-13T14:18:41.845Z,12.68
2022-11-13T14:21:31.722Z,12.13
2022-11-13T14:24:26.136Z,11.68
2022-11-13T14:27:21.346Z,10.27
2022-11-13T14:30:27.234Z,9.80
2022-11-13T14:33:27.763Z,8.85
2022-11-13T14:36:19.618Z,9.40
2022-11-13T14:39:10.604Z,11.40
2022-11-13T14:42:02.734Z,12.40
2022-11-13T14:44:52.934Z,10.07
2022-11-13T14:47:43.266Z,9.57
2022-11-13T14:50:37.639Z,11.15
2022-11-13T14:53:32.268Z,10.68
2022-11-13T14:56:22.394Z,10.77
2022-11-13T14:59:19.384Z,11.20
2022-11-13T15:02:10.293Z,14.05
2022-11-13T15:05:00.965Z,13.57
2022-11-13T15:07:54.685Z,10.80
2022-11-13T15:10:45.530Z,12.88
2022-11-13T15:13:36.567Z,14.15
2022-11-13T15:16:30.271Z,13.93
2022-11-13T15:19:22.173Z,14.40
2022-11-13T15:22:30.792Z,10.98
2022-11-13T15:25:27.594Z,14.07
2022-11-13T15:28:18.436Z,10.35
2022-11-13T15:31:19.972Z,14.20
2022-11-13T15:34:12.649Z,14.00
2022-11-13T15:37:03.026Z,18.65
2022-11-13T15:39:53.536Z,17.88
2022-11-13T15:42:46.835Z,14.07
2022-11-13T15:45:43.807Z,15.43
2022-11-13T15:48:34.282Z,13.63
2022-11-13T15:51:27.998Z,15.07
2022-11-13T15:54:22.535Z,17.27
2022-11-13T15:57:22.374Z,20.40
2022-11-13T16:00:19.550Z,22.80
2022-11-13T16:03:12.316Z,24.92
2022-11-13T16:06:02.336Z,23.00
2022-11-13T16:08:53.413Z,23.85
2022-11-13T16:11:45.934Z,19.15
2022-11-13T16:14:36.769Z,18.45
2022-11-13T16:17:29.720Z,17.65
2022-11-13T16:20:21.399Z,19.60
2022-11-13T16:23:16.595Z,15.30
2022-11-13T16:26:06.896Z,15.00
2022-11-13T16:29:13.331Z,17.73
2022-11-13T16:32:04.199Z,15.52
2022-11-13T16:34:56.748Z,16.58
2022-11-13T16:37:47.342Z,16.88
2022-11-13T16:40:37.585Z,19.20
2022-11-13T16:43:27.825Z,17.80
2022-11-13T16:46:23.964Z,17.77
2022-11-13T16:49:19.770Z,18.48
2022-11-13T16:52:13.240Z,18.42
2022-11-13T16:55:06.506Z,18.35
2022-11-13T16:57:57.997Z,18.70
2022-11-13T17:00:48.402Z,16.25
2022-11-13T17:03:39.725Z,16.63
2022-11-13T17:06:32.207Z,16.15
2022-11-13T17:09:25.071Z,15.85
2022-11-13T17:12:19.059Z,18.75
2022-11-13T17:15:13.210Z,17.65
2022-11-13T17:18:03.387Z,19.38
2022-11-13T17:20:55.740Z,19.75
2022-11-13T17:23:46.536Z,23.15
2022-11-13T17:26:39.493Z,24.88
2022-11-13T17:29:29.950Z,23.95
2022-11-13T17:32:20.190Z,22.30
2022-11-13T17:35:11.634Z,22.58
2022-11-13T17:38:02.425Z,15.57
2022-11-13T17:40:52.444Z,18.45
2022-11-13T17:43:46.398Z,20.67
2022-11-13T17:46:36.587Z,22.27
2022-11-13T17:49:26.394Z,22.63
2022-11-13T17:52:16.576Z,18.98
2022-11-13T17:55:08.764Z,19.77
2022-11-13T17:58:03.344Z,18.08
2022-11-13T18:00:56.208Z,22.65
2022-11-13T18:03:46.748Z,19.42
2022-11-13T18:06:38.191Z,19.05
2022-11-13T18:09:28.683Z,20.98
2022-11-13T18:12:18.790Z,24.40
2022-11-13T18:15:09.835Z,32.05
2022-11-13T18:18:03.167Z,40.60
2022-11-13T18:20:53.258Z,27.27
2022-11-13T18:23:43.189Z,27.90
2022-11-13T18:26:35.016Z,27.13
2022-11-13T18:29:25.139Z,31.27
2022-11-13T18:32:15.310Z,27.10
2022-11-13T18:35:08.277Z,22.02
2022-11-13T18:37:58.221Z,22.75
2022-11-13T18:40:48.030Z,20.95
2022-11-13T18:43:38.528Z,22.70
2022-11-13T18:46:28.820Z,25.05
2022-11-13T18:49:19.014Z,26.20
2022-11-13T18:52:12.116Z,23.42
2022-11-13T18:55:02.427Z,23.73
2022-11-13T18:57:52.651Z,23.02
2022-11-13T19:00:42.743Z,22.65
2022-11-13T19:03:33.955Z,20.67
2022-11-13T19:06:26.711Z,22.02
2022-11-13T19:09:20.220Z,26.40
2022-11-13T19:12:11.608Z,30.33
2022-11-13T19:15:03.241Z,27.20
2022-11-13T19:17:53.817Z,24.70
2022-11-13T19:20:44.382Z,30.42
2022-11-13T19:23:34.448Z,26.48
2022-11-13T19:26:28.049Z,25.80
2022-11-13T19:29:18.679Z,26.27
2022-11-13T19:32:09.051Z,26.65
2022-11-13T19:34:58.996Z,25.40
2022-11-13T19:37:49.551Z,26.88
2022-11-13T19:40:39.797Z,25.38
2022-11-13T19:43:35.142Z,29.15
2022-11-13T19:46:25.371Z,34.42
2022-11-13T19:49:16.428Z,33.22
2022-11-13T19:52:06.490Z,40.17
2022-11-13T19:54:56.851Z,41.80
2022-11-13T19:57:46.752Z,36.58
2022-11-13T20:00:40.305Z,36.75
2022-11-13T20:03:31.575Z,35.15
2022-11-13T20:06:21.741Z,32.83
2022-11-13T20:09:11.760Z,33.53
2022-11-13T20:12:01.976Z,32.97
2022-11-13T20:14:52.675Z,31.00
2022-11-13T20:17:45.404Z,33.67
2022-11-13T20:20:36.712Z,32.67
2022-11-13T20:23:27.187Z,28.58
2022-11-13T20:26:18.965Z,30.67
2022-11-13T20:29:09.463Z,32.70
2022-11-13T20:31:59.865Z,27.45
2022-11-13T20:34:52.707Z,29.13
2022-11-13T20:37:43.763Z,26.60
2022-11-13T20:40:33.914Z,30.65
2022-11-13T20:43:24.318Z,39.47
2022-11-13T20:46:16.209Z,36.22
2022-11-13T20:49:06.729Z,30.40
2022-11-13T20:51:59.297Z,33.03
2022-11-13T20:54:49.241Z,33.10
2022-11-13T20:57:41.055Z,29.60
2022-11-13T21:00:31.970Z,31.75
2022-11-13T21:03:21.844Z,29.50
2022-11-13T21:12:11.873Z,24.25
2022-11-13T21:15:02.110Z,27.40
2022-11-13T21:17:52.894Z,25.75
2022-11-13T21:20:43.344Z,24.02
2022-11-13T21:23:33.719Z,23.25
2022-11-13T21:26:24.693Z,25.20
2022-11-13T21:29:18.063Z,31.88
2022-11-13T21:32:08.769Z,26.55
2022-11-13T21:34:59.554Z,23.88
2022-11-13T21:37:51.429Z,23.77
2022-11-13T21:40:42.637Z,28.00
2022-11-13T21:43:33.960Z,36.35
2022-11-13T21:46:29.329Z,33.50
2022-11-13T21:49:20.003Z,32.50
2022-11-13T21:52:11.894Z,22.23
2022-11-13T21:55:02.114Z,23.00
2022-11-13T21:57:52.054Z,21.60
2022-11-13T22:00:42.251Z,24.50
2022-11-13T22:03:35.456Z,24.80
2022-11-13T22:06:26.689Z,21.90
2022-11-13T22:09:18.778Z,20.45
2022-11-13T22:12:08.645Z,21.55
2022-11-13T22:14:59.254Z,24.65
2022-11-13T22:17:50.491Z,24.45
2022-11-13T22:20:43.600Z,28.52
2022-11-13T22:23:33.674Z,34.42
2022-11-13T22:26:25.029Z,30.75
2022-11-13T22:29:15.313Z,30.00
2022-11-13T22:32:06.246Z,29.60
2022-11-13T22:34:56.771Z,36.13
2022-11-13T22:37:50.102Z,34.78
2022-11-13T22:40:40.481Z,29.73
2022-11-13T22:43:31.549Z,26.75
2022-11-13T22:46:23.681Z,21.65
2022-11-13T22:49:17.769Z,20.38
2022-11-13T22:52:09.272Z,21.95
2022-11-13T22:55:01.925Z,23.10
2022-11-13T22:57:53.035Z,21.90
2022-11-13T23:00:43.198Z,33.38
2022-11-13T23:03:33.871Z,23.92
2022-11-13T23:06:25.891Z,23.33
2022-11-13T23:09:16.130Z,23.60
2022-11-13T23:12:10.156Z,22.45
2022-11-13T23:15:00.565Z,24.85
2022-11-13T23:17:51.089Z,23.08
2022-11-13T23:20:43.434Z,20.15
2022-11-13T23:23:34.738Z,21.15
2022-11-13T23:26:25.141Z,18.08
2022-11-13T23:29:19.018Z,20.38
2022-11-13T23:32:09.662Z,18.02
2022-11-13T23:35:00.634Z,19.58
2022-11-13T23:37:50.887Z,19.80
2022-11-13T23:40:41.375Z,18.60
2022-11-13T23:44:06.534Z,19.55
2022-11-13T23:46:46.365Z,20.13
2022-11-13T23:49:36.801Z,18.85
2022-11-13T23:52:27.131Z,17.90
2022-11-13T23:55:17.545Z,18.80
2022-11-13T23:58:09.156Z,19.23
